createdAt,value
2018-04-26T00:00:06.252Z,11.18
2018-04-26T00:01:06.236Z,11.12
2018-04-26T00:02:06.230Z,11.23
2018-04-26T00:03:06.199Z,11.20
2018-04-26T00:04:06.180Z,11.23
2018-04-26T00:05:06.162Z,11.13
2018-04-26T00:06:06.145Z,11.16
2018-04-26T00:07:06.131Z,11.18
2018-04-26T00:08:06.116Z,11.16
2018-04-26T00:09:06.092Z,11.22
2018-04-26T00:10:06.071Z,11.10
2018-04-26T00:11:06.052Z,11.18
2018-04-26T00:12:06.035Z,11.12
2018-04-26T00:13:06.017Z,11.04
2018-04-26T00:14:06.000Z,11.10
2018-04-26T00:15:05.979Z,11.15
2018-04-26T00:16:05.965Z,11.08
2018-04-26T00:17:05.944Z,11.07
2018-04-26T00:18:05.927Z,11.01
2018-04-26T00:19:05.907Z,11.01
2018-04-26T00:20:05.896Z,11.02
2018-04-26T00:21:05.878Z,11.08
2018-04-26T00:22:05.853Z,11.04
2018-04-26T00:23:05.833Z,10.87
2018-04-26T00:24:05.815Z,10.90
2018-04-26T00:25:05.798Z,10.87
2018-04-26T00:26:05.780Z,10.94
2018-04-26T00:27:05.760Z,11.01
2018-04-26T00:28:05.743Z,11.04
2018-04-26T00:29:05.725Z,11.04
2018-04-26T00:30:05.706Z,11.04
2018-04-26T00:31:05.688Z,11.07
2018-04-26T00:32:05.669Z,11.15
2018-04-26T00:33:05.650Z,11.12
2018-04-26T00:34:05.641Z,11.08
2018-04-26T00:35:05.615Z,11.15
2018-04-26T00:36:05.605Z,11.05
2018-04-26T00:37:05.579Z,11.19
2018-04-26T00:38:05.560Z,11.27
2018-04-26T00:39:05.544Z,11.26
2018-04-26T00:40:05.528Z,11.26
2018-04-26T00:41:05.504Z,11.23
2018-04-26T00:42:05.493Z,11.38
2018-04-26T00:43:05.478Z,11.44
2018-04-26T00:44:05.452Z,11.40
2018-04-26T00:45:05.432Z,11.43
2018-04-26T00:46:05.423Z,11.45
2018-04-26T00:47:05.405Z,11.27
2018-04-26T00:48:05.383Z,11.31
2018-04-26T00:49:05.359Z,11.34
2018-04-26T00:50:05.353Z,11.26
2018-04-26T00:51:05.325Z,11.48
2018-04-26T00:52:05.307Z,11.31
2018-04-26T00:53:05.293Z,11.31
2018-04-26T00:54:05.266Z,11.33
2018-04-26T00:55:05.298Z,11.25
2018-04-26T00:56:05.231Z,11.41
2018-04-26T00:57:05.221Z,11.40
2018-04-26T00:58:05.198Z,11.31
2018-04-26T00:59:05.173Z,11.26
2018-04-26T01:00:05.160Z,11.26
2018-04-26T01:01:05.138Z,11.35
2018-04-26T01:02:05.121Z,11.23
2018-04-26T01:03:05.100Z,11.26
2018-04-26T01:04:05.083Z,11.15
2018-04-26T01:05:05.077Z,11.26
2018-04-26T01:06:05.047Z,11.34
2018-04-26T01:07:05.028Z,11.45
2018-04-26T01:08:05.011Z,11.40
2018-04-26T01:09:04.991Z,11.31
2018-04-26T01:10:04.975Z,11.41
2018-04-26T01:11:04.958Z,11.30
2018-04-26T01:12:04.937Z,11.26
2018-04-26T01:13:04.918Z,11.31
2018-04-26T01:14:04.900Z,11.37
2018-04-26T01:15:04.881Z,11.23
2018-04-26T01:16:04.964Z,11.26
2018-04-26T01:17:04.854Z,11.35
2018-04-26T01:18:04.827Z,11.34
2018-04-26T01:19:04.809Z,11.26
2018-04-26T01:20:04.863Z,11.34
2018-04-26T01:21:04.779Z,11.45
2018-04-26T01:22:04.753Z,11.55
2018-04-26T01:23:04.738Z,11.52
2018-04-26T01:24:04.717Z,11.45
2018-04-26T01:25:04.700Z,11.53
2018-04-26T01:26:04.684Z,11.49
2018-04-26T01:27:04.661Z,11.52
2018-04-26T01:28:04.643Z,11.58
2018-04-26T01:29:04.628Z,11.62
2018-04-26T01:30:04.612Z,11.58
2018-04-26T01:31:04.589Z,11.53
2018-04-26T01:32:04.572Z,11.45
2018-04-26T01:33:04.557Z,11.49
2018-04-26T01:34:04.535Z,11.49
2018-04-26T01:35:04.516Z,11.48
2018-04-26T01:36:04.506Z,11.59
2018-04-26T01:37:04.486Z,11.51
2018-04-26T01:38:04.462Z,11.44
2018-04-26T01:39:04.442Z,11.45
2018-04-26T01:40:04.429Z,11.53
2018-04-26T01:41:04.405Z,11.48
2018-04-26T01:42:04.397Z,11.51
2018-04-26T01:43:04.378Z,11.52
2018-04-26T01:44:04.352Z,11.53
2018-04-26T01:45:04.334Z,11.52
2018-04-26T01:46:04.323Z,11.38
2018-04-26T01:47:04.296Z,11.49
2018-04-26T01:48:04.337Z,11.55
2018-04-26T01:49:04.261Z,11.43
2018-04-26T01:50:04.242Z,11.49
2018-04-26T01:51:04.239Z,11.43
2018-04-26T01:52:04.206Z,11.45
2018-04-26T01:53:04.187Z,11.48
2018-04-26T01:54:04.175Z,11.53
2018-04-26T01:55:04.148Z,11.41
2018-04-26T01:56:04.140Z,11.52
2018-04-26T01:57:04.114Z,11.40
2018-04-26T01:58:04.097Z,11.44
2018-04-26T01:59:04.078Z,11.48
2018-04-26T02:00:04.058Z,11.48
2018-04-26T02:01:04.041Z,11.37
2018-04-26T02:02:04.023Z,11.26
2018-04-26T02:03:04.004Z,11.26
2018-04-26T02:04:03.986Z,11.16
2018-04-26T02:05:03.966Z,11.07
2018-04-26T02:06:03.949Z,11.02
2018-04-26T02:07:03.931Z,11.01
2018-04-26T02:08:03.921Z,10.98
2018-04-26T02:09:03.893Z,11.01
2018-04-26T02:10:03.877Z,11.05
2018-04-26T02:11:03.866Z,11.10
2018-04-26T02:12:03.838Z,10.84
2018-04-26T02:13:03.819Z,10.90
2018-04-26T02:14:03.854Z,10.82
2018-04-26T02:15:03.783Z,10.86
2018-04-26T02:16:03.764Z,10.86
2018-04-26T02:17:03.755Z,10.83
2018-04-26T02:18:03.728Z,10.82
2018-04-26T02:19:03.708Z,10.86
2018-04-26T02:20:03.691Z,10.89
2018-04-26T02:21:03.674Z,10.86
2018-04-26T02:22:03.654Z,10.90
2018-04-26T02:23:03.635Z,10.77
2018-04-26T02:24:03.618Z,10.83
2018-04-26T02:25:03.599Z,10.79
2018-04-26T02:26:03.589Z,10.76
2018-04-26T02:27:03.562Z,10.77
2018-04-26T02:28:03.543Z,10.79
2018-04-26T02:29:03.527Z,10.89
2018-04-26T02:30:03.506Z,10.80
2018-04-26T02:31:03.487Z,10.77
2018-04-26T02:32:03.477Z,10.82
2018-04-26T02:33:03.452Z,10.86
2018-04-26T02:34:03.433Z,10.86
2018-04-26T02:35:03.413Z,10.80
2018-04-26T02:36:03.404Z,10.89
2018-04-26T02:37:03.380Z,10.82
2018-04-26T02:38:03.359Z,10.67
2018-04-26T02:39:03.341Z,10.68
2018-04-26T02:40:03.334Z,10.68
2018-04-26T02:41:03.305Z,10.51
2018-04-26T02:42:03.288Z,10.59
2018-04-26T02:43:03.267Z,10.75
2018-04-26T02:44:03.311Z,10.69
2018-04-26T02:45:03.243Z,10.76
2018-04-26T02:46:03.217Z,10.68
2018-04-26T02:47:03.227Z,10.64
2018-04-26T02:48:03.184Z,10.64
2018-04-26T02:49:03.158Z,10.67
2018-04-26T02:50:03.143Z,10.67
2018-04-26T02:51:03.124Z,10.59
2018-04-26T02:52:03.108Z,10.46
2018-04-26T02:53:03.085Z,10.58
2018-04-26T02:54:03.068Z,10.72
2018-04-26T02:55:03.048Z,10.71
2018-04-26T02:56:03.031Z,10.53
2018-04-26T02:57:03.013Z,10.61
2018-04-26T02:58:02.997Z,10.57
2018-04-26T02:59:02.977Z,10.61
2018-04-26T03:00:02.972Z,10.64
2018-04-26T03:01:02.944Z,10.53
2018-04-26T03:02:02.948Z,10.48
2018-04-26T03:03:02.903Z,10.59
2018-04-26T03:04:02.886Z,10.71
2018-04-26T03:05:02.876Z,10.76
2018-04-26T03:06:02.853Z,10.61
2018-04-26T03:07:02.838Z,10.58
2018-04-26T03:08:02.810Z,10.69
2018-04-26T03:09:02.797Z,10.76
2018-04-26T03:10:02.778Z,10.71
2018-04-26T03:11:02.759Z,10.89
2018-04-26T03:12:02.738Z,10.87
2018-04-26T03:13:02.722Z,10.71
2018-04-26T03:14:02.701Z,10.69
2018-04-26T03:15:02.683Z,10.80
2018-04-26T03:16:02.662Z,10.69
2018-04-26T03:17:02.645Z,10.65
2018-04-26T03:18:02.629Z,10.62
2018-04-26T03:19:02.608Z,10.61
2018-04-26T03:20:02.589Z,10.51
2018-04-26T03:21:02.572Z,10.45
2018-04-26T03:22:02.553Z,10.42
2018-04-26T03:23:02.535Z,10.46
2018-04-26T03:24:02.524Z,10.58
2018-04-26T03:25:02.497Z,10.62
2018-04-26T03:26:02.481Z,10.55
2018-04-26T03:27:02.465Z,10.45
2018-04-26T03:28:02.449Z,10.51
2018-04-26T03:29:02.424Z,10.64
2018-04-26T03:30:02.455Z,10.53
2018-04-26T03:31:02.394Z,10.42
2018-04-26T03:32:02.367Z,10.53
2018-04-26T03:33:02.349Z,10.61
2018-04-26T03:34:02.333Z,10.57
2018-04-26T03:35:02.318Z,10.57
2018-04-26T03:36:02.294Z,10.55
2018-04-26T03:37:02.273Z,10.48
2018-04-26T03:38:02.254Z,10.45
2018-04-26T03:39:02.235Z,10.51
2018-04-26T03:40:02.218Z,10.61
2018-04-26T03:41:02.200Z,10.61
2018-04-26T03:42:02.181Z,10.53
2018-04-26T03:43:02.164Z,10.46
2018-04-26T03:44:02.144Z,10.53
2018-04-26T03:45:02.157Z,10.55
2018-04-26T03:46:02.107Z,10.61
2018-04-26T03:47:02.092Z,10.62
2018-04-26T03:48:02.067Z,10.59
2018-04-26T03:49:02.054Z,10.64
2018-04-26T03:50:02.031Z,10.68
2018-04-26T03:51:02.013Z,10.61
2018-04-26T03:52:01.993Z,10.53
2018-04-26T03:53:01.975Z,10.61
2018-04-26T03:54:01.957Z,10.61
2018-04-26T03:55:01.937Z,10.58
2018-04-26T03:56:01.925Z,10.57
2018-04-26T03:57:01.901Z,10.45
2018-04-26T03:58:01.881Z,10.42
2018-04-26T03:59:01.865Z,10.61
2018-04-26T04:00:01.851Z,10.58
2018-04-26T04:01:01.825Z,10.53
2018-04-26T04:02:01.806Z,10.61
2018-04-26T04:03:01.786Z,10.65
2018-04-26T04:04:01.769Z,10.61
2018-04-26T04:05:01.751Z,10.59
2018-04-26T04:06:01.731Z,10.64
2018-04-26T04:07:01.709Z,10.57
2018-04-26T04:08:01.694Z,10.51
2018-04-26T04:09:01.673Z,10.51
2018-04-26T04:10:01.654Z,10.57
2018-04-26T04:11:01.635Z,10.41
2018-04-26T04:12:01.622Z,10.48
2018-04-26T04:13:01.599Z,10.07
2018-04-26T04:14:01.580Z,9.70
2018-04-26T04:15:01.561Z,9.54
2018-04-26T04:16:01.541Z,9.42
2018-04-26T04:17:01.525Z,9.27
2018-04-26T04:18:01.505Z,9.39
2018-04-26T04:19:01.485Z,9.39
2018-04-26T04:20:01.469Z,9.31
2018-04-26T04:21:01.452Z,9.44
2018-04-26T04:22:01.430Z,9.40
2018-04-26T04:23:01.410Z,9.40
2018-04-26T04:24:01.405Z,9.47
2018-04-26T04:25:01.381Z,9.42
2018-04-26T04:26:01.353Z,9.48
2018-04-26T04:27:01.333Z,9.47
2018-04-26T04:28:01.363Z,9.59
2018-04-26T04:29:01.304Z,9.58
2018-04-26T04:30:01.277Z,9.62
2018-04-26T04:31:01.257Z,9.59
2018-04-26T04:32:01.239Z,9.63
2018-04-26T04:33:01.279Z,9.55
2018-04-26T04:34:01.201Z,9.58
2018-04-26T04:35:01.180Z,9.63
2018-04-26T04:36:01.161Z,9.70
2018-04-26T04:37:01.146Z,9.67
2018-04-26T04:38:01.123Z,9.63
2018-04-26T04:39:01.104Z,9.58
2018-04-26T04:40:01.085Z,9.59
2018-04-26T04:41:01.073Z,9.62
2018-04-26T04:42:01.055Z,9.62
2018-04-26T04:43:01.027Z,9.62
2018-04-26T04:44:01.018Z,9.66
2018-04-26T04:45:00.990Z,9.80
2018-04-26T04:46:00.990Z,9.76
2018-04-26T04:47:00.960Z,9.80
2018-04-26T04:48:00.932Z,9.87
2018-04-26T04:49:00.918Z,9.80
2018-04-26T04:50:00.894Z,9.81
2018-04-26T04:51:00.876Z,9.81
2018-04-26T04:52:00.856Z,9.92
2018-04-26T04:53:00.923Z,9.91
2018-04-26T04:54:00.822Z,9.84
2018-04-26T04:55:00.802Z,9.94
2018-04-26T04:56:00.783Z,10.06
2018-04-26T04:57:00.772Z,10.00
2018-04-26T04:58:00.744Z,9.92
2018-04-26T04:59:00.725Z,9.95
2018-04-26T05:00:00.712Z,9.95
2018-04-26T05:01:00.687Z,9.95
2018-04-26T05:02:00.737Z,9.99
2018-04-26T05:03:00.653Z,10.00
2018-04-26T05:04:00.631Z,10.07
2018-04-26T05:05:00.612Z,9.94
2018-04-26T05:06:00.602Z,9.95
2018-04-26T05:07:00.574Z,9.81
2018-04-26T05:08:00.564Z,9.99
2018-04-26T05:09:00.537Z,10.00
2018-04-26T05:10:00.523Z,10.00
2018-04-26T05:11:00.498Z,9.88
2018-04-26T05:12:00.482Z,9.91
2018-04-26T05:13:00.465Z,9.92
2018-04-26T05:14:00.475Z,9.94
2018-04-26T05:15:00.425Z,10.06
2018-04-26T05:16:00.406Z,10.09
2018-04-26T05:17:00.387Z,10.20
2018-04-26T05:18:00.367Z,10.20
2018-04-26T05:19:00.355Z,10.10
2018-04-26T05:20:00.330Z,10.09
2018-04-26T05:21:00.312Z,10.07
2018-04-26T05:22:00.293Z,9.99
2018-04-26T05:23:00.274Z,10.18
2018-04-26T05:24:00.256Z,10.24
2018-04-26T05:25:00.236Z,10.24
2018-04-26T05:26:00.232Z,10.24
2018-04-26T05:27:00.212Z,10.48
2018-04-26T05:28:00.182Z,10.36
2018-04-26T05:29:00.166Z,10.36
2018-04-26T05:30:00.240Z,10.15
2018-04-26T05:31:00.125Z,10.15
2018-04-26T05:32:00.110Z,10.10
2018-04-26T05:33:00.088Z,10.24
2018-04-26T05:34:00.205Z,10.27
2018-04-26T05:35:00.055Z,10.21
2018-04-26T05:36:00.038Z,10.20
2018-04-26T05:37:00.014Z,10.18
2018-04-26T05:38:00.010Z,10.34
2018-04-26T05:38:59.987Z,10.51
2018-04-26T05:39:59.961Z,11.08
2018-04-26T05:40:59.941Z,12.15
2018-04-26T05:41:59.932Z,12.90
2018-04-26T05:42:59.904Z,12.76
2018-04-26T05:43:59.887Z,12.37
2018-04-26T05:44:59.877Z,11.85
2018-04-26T05:45:59.851Z,11.65
2018-04-26T05:46:59.834Z,11.63
2018-04-26T05:47:59.818Z,11.55
2018-04-26T05:48:59.802Z,11.31
2018-04-26T05:49:59.783Z,11.18
2018-04-26T05:50:59.769Z,11.12
2018-04-26T05:51:59.757Z,10.92
2018-04-26T05:52:59.736Z,10.89
2018-04-26T05:53:59.716Z,10.80
2018-04-26T05:54:59.700Z,10.65
2018-04-26T05:55:59.798Z,10.76
2018-04-26T05:56:59.669Z,10.58
2018-04-26T05:57:59.657Z,10.65
2018-04-26T05:58:59.632Z,10.76
2018-04-26T05:59:59.617Z,10.89
2018-04-26T06:00:59.598Z,10.82
2018-04-26T06:01:59.582Z,10.75
2018-04-26T06:02:59.565Z,10.86
2018-04-26T06:03:59.550Z,11.18
2018-04-26T06:04:59.532Z,11.41
2018-04-26T06:05:59.515Z,11.18
2018-04-26T06:06:59.496Z,10.90
2018-04-26T06:07:59.485Z,10.83
2018-04-26T06:08:59.472Z,10.89
2018-04-26T06:09:59.448Z,10.75
2018-04-26T06:10:59.428Z,10.72
2018-04-26T06:11:59.415Z,10.75
2018-04-26T06:12:59.397Z,10.71
2018-04-26T06:13:59.379Z,10.67
2018-04-26T06:14:59.362Z,10.82
2018-04-26T06:15:59.354Z,10.84
2018-04-26T06:16:59.387Z,11.05
2018-04-26T06:17:59.316Z,11.08
2018-04-26T06:18:59.294Z,11.05
2018-04-26T06:19:59.277Z,10.94
2018-04-26T06:20:59.261Z,10.84
2018-04-26T06:21:59.244Z,10.89
2018-04-26T06:22:59.228Z,11.02
2018-04-26T06:23:59.212Z,10.84
2018-04-26T06:24:59.195Z,10.86
2018-04-26T06:25:59.191Z,11.10
2018-04-26T06:26:59.164Z,11.20
2018-04-26T06:27:59.149Z,11.56
2018-04-26T06:28:59.126Z,11.85
2018-04-26T06:29:59.112Z,11.73
2018-04-26T06:30:59.154Z,11.70
2018-04-26T06:31:59.078Z,11.48
2018-04-26T06:32:59.059Z,11.40
2018-04-26T06:33:59.045Z,11.78
2018-04-26T06:34:59.027Z,12.53
2018-04-26T06:35:59.012Z,12.87
2018-04-26T06:36:59.003Z,12.86
2018-04-26T06:37:58.978Z,12.93
2018-04-26T06:38:58.961Z,12.76
2018-04-26T06:39:58.947Z,12.61
2018-04-26T06:40:58.934Z,12.63
2018-04-26T06:41:58.916Z,12.39
2018-04-26T06:42:58.908Z,12.20
2018-04-26T06:43:58.892Z,12.12
2018-04-26T06:44:58.877Z,12.11
2018-04-26T06:45:58.853Z,12.05
2018-04-26T06:46:58.843Z,11.93
2018-04-26T06:47:58.892Z,12.10
2018-04-26T06:48:58.811Z,12.11
2018-04-26T06:49:58.792Z,12.20
2018-04-26T06:50:58.781Z,12.10
2018-04-26T06:51:58.766Z,11.77
2018-04-26T06:52:58.749Z,11.88
2018-04-26T06:53:58.735Z,12.10
2018-04-26T06:54:58.719Z,12.33
2018-04-26T06:55:58.704Z,12.51
2018-04-26T06:56:58.688Z,12.36
2018-04-26T06:57:58.676Z,12.35
2018-04-26T06:58:58.659Z,12.14
2018-04-26T06:59:58.661Z,12.05
2018-04-26T07:00:58.639Z,12.10
2018-04-26T07:01:58.622Z,11.86
2018-04-26T07:02:58.599Z,11.73
2018-04-26T07:03:58.585Z,11.81
2018-04-26T07:04:58.571Z,11.74
2018-04-26T07:05:58.556Z,11.80
2018-04-26T07:06:58.540Z,11.96
2018-04-26T07:07:58.526Z,12.28
2018-04-26T07:08:58.511Z,12.35
2018-04-26T07:09:58.503Z,12.53
2018-04-26T07:10:58.481Z,12.45
2018-04-26T07:11:58.516Z,12.53
2018-04-26T07:12:58.451Z,12.80
2018-04-26T07:13:58.452Z,12.58
2018-04-26T07:14:58.419Z,12.66
2018-04-26T07:15:58.405Z,12.57
2018-04-26T07:16:58.390Z,12.63
2018-04-26T07:17:58.380Z,12.61
2018-04-26T07:18:58.358Z,12.55
2018-04-26T07:19:58.350Z,12.55
2018-04-26T07:20:58.331Z,12.78
2018-04-26T07:21:58.318Z,12.80
2018-04-26T07:22:58.299Z,12.86
2018-04-26T07:23:58.285Z,12.76
2018-04-26T07:24:58.277Z,12.84
2018-04-26T07:25:58.257Z,12.88
2018-04-26T07:26:58.240Z,13.02
2018-04-26T07:27:58.225Z,12.90
2018-04-26T07:28:58.210Z,12.91
2018-04-26T07:29:58.195Z,12.94
2018-04-26T07:30:58.191Z,12.87
2018-04-26T07:31:58.167Z,12.86
2018-04-26T07:32:58.153Z,12.98
2018-04-26T07:33:58.146Z,12.90
2018-04-26T07:34:58.143Z,13.19
2018-04-26T07:35:58.110Z,13.12
2018-04-26T07:36:58.093Z,13.08
2018-04-26T07:37:58.085Z,13.06
2018-04-26T07:38:58.068Z,12.86
2018-04-26T07:39:58.058Z,12.83
2018-04-26T07:40:58.035Z,12.80
2018-04-26T07:41:58.023Z,12.86
2018-04-26T07:42:58.005Z,12.88
2018-04-26T07:43:57.992Z,12.76
2018-04-26T07:44:57.976Z,12.66
2018-04-26T07:45:57.960Z,12.61
2018-04-26T07:46:57.953Z,12.55
2018-04-26T07:47:57.930Z,12.47
2018-04-26T07:48:57.922Z,12.63
2018-04-26T07:49:57.902Z,12.81
2018-04-26T07:50:57.885Z,12.76
2018-04-26T07:51:57.869Z,12.88
2018-04-26T07:52:57.854Z,12.87
2018-04-26T07:53:57.857Z,12.90
2018-04-26T07:54:57.823Z,12.75
2018-04-26T07:55:57.809Z,12.53
2018-04-26T07:56:57.812Z,12.76
2018-04-26T07:57:57.879Z,12.95
2018-04-26T07:58:57.765Z,13.03
2018-04-26T07:59:57.757Z,13.03
2018-04-26T08:00:57.745Z,13.26
2018-04-26T08:01:57.718Z,13.36
2018-04-26T08:02:57.702Z,13.36
2018-04-26T08:03:57.701Z,13.33
2018-04-26T08:04:57.673Z,12.91
2018-04-26T08:05:57.661Z,12.94
2018-04-26T08:06:57.646Z,12.87
2018-04-26T08:07:57.633Z,12.98
2018-04-26T08:08:57.622Z,12.87
2018-04-26T08:09:57.610Z,13.06
2018-04-26T08:10:57.586Z,13.11
2018-04-26T08:11:57.570Z,13.37
2018-04-26T08:12:57.556Z,13.33
2018-04-26T08:13:57.543Z,13.54
2018-04-26T08:14:57.533Z,13.60
2018-04-26T08:15:57.522Z,13.52
2018-04-26T08:16:57.515Z,13.50
2018-04-26T08:17:57.485Z,13.39
2018-04-26T08:18:57.496Z,13.06
2018-04-26T08:19:57.463Z,12.87
2018-04-26T08:20:57.440Z,12.95
2018-04-26T08:21:57.426Z,12.90
2018-04-26T08:22:57.418Z,12.95
2018-04-26T08:23:57.398Z,12.90
2018-04-26T08:24:57.391Z,12.95
2018-04-26T08:25:57.371Z,13.28
2018-04-26T08:26:57.352Z,13.49
2018-04-26T08:27:57.349Z,13.54
2018-04-26T08:28:57.326Z,13.54
2018-04-26T08:29:57.317Z,13.33
2018-04-26T08:30:57.294Z,13.11
2018-04-26T08:31:57.281Z,13.21
2018-04-26T08:32:57.265Z,13.24
2018-04-26T08:33:57.249Z,13.36
2018-04-26T08:34:57.234Z,13.27
2018-04-26T08:35:57.235Z,13.45
2018-04-26T08:36:57.242Z,13.43
2018-04-26T08:37:57.202Z,13.42
2018-04-26T08:38:57.175Z,13.57
2018-04-26T08:39:57.165Z,13.80
2018-04-26T08:40:57.155Z,13.86
2018-04-26T08:41:57.139Z,13.68
2018-04-26T08:42:57.116Z,13.75
2018-04-26T08:43:57.152Z,13.80
2018-04-26T08:44:57.094Z,14.05
2018-04-26T08:45:57.077Z,14.05
2018-04-26T08:46:57.056Z,14.19
2018-04-26T08:47:57.043Z,14.34
2018-04-26T08:48:57.033Z,14.28
2018-04-26T08:49:57.015Z,14.25
2018-04-26T08:50:57.000Z,14.08
2018-04-26T08:51:56.985Z,14.03
2018-04-26T08:52:56.978Z,14.20
2018-04-26T08:53:56.968Z,14.05
2018-04-26T08:54:56.941Z,14.25
2018-04-26T08:55:56.930Z,14.62
2018-04-26T08:56:56.912Z,14.87
2018-04-26T08:57:56.899Z,15.02
2018-04-26T08:58:56.881Z,15.17
2018-04-26T08:59:56.869Z,15.23
2018-04-26T09:00:56.854Z,15.14
2018-04-26T09:01:56.840Z,15.43
2018-04-26T09:02:56.834Z,15.63
2018-04-26T09:03:56.815Z,15.94
2018-04-26T09:04:56.799Z,15.98
2018-04-26T09:05:56.782Z,15.62
2018-04-26T09:06:56.771Z,15.18
2018-04-26T09:07:56.753Z,14.97
2018-04-26T09:08:56.741Z,14.77
2018-04-26T09:09:56.726Z,14.74
2018-04-26T09:10:56.711Z,15.00
2018-04-26T09:11:56.697Z,14.99
2018-04-26T09:12:56.685Z,15.02
2018-04-26T09:13:56.668Z,14.77
2018-04-26T09:14:56.654Z,14.56
2018-04-26T09:15:56.753Z,14.71
2018-04-26T09:16:56.632Z,14.74
2018-04-26T09:17:56.614Z,14.87
2018-04-26T09:18:56.601Z,14.87
2018-04-26T09:19:56.600Z,14.99
2018-04-26T09:20:56.573Z,14.87
2018-04-26T09:21:56.637Z,14.44
2018-04-26T09:22:56.543Z,14.19
2018-04-26T09:23:56.531Z,13.93
2018-04-26T09:24:56.523Z,13.55
2018-04-26T09:25:56.504Z,13.40
2018-04-26T09:26:56.496Z,13.24
2018-04-26T09:27:56.475Z,13.19
2018-04-26T09:28:56.471Z,13.02
2018-04-26T09:29:56.460Z,12.55
2018-04-26T09:30:56.433Z,12.63
2018-04-26T09:31:56.418Z,12.91
2018-04-26T09:32:56.430Z,13.64
2018-04-26T09:33:56.393Z,14.26
2018-04-26T09:34:56.382Z,14.41
2018-04-26T09:35:56.363Z,14.61
2018-04-26T09:36:56.350Z,15.23
2018-04-26T09:37:56.337Z,14.93
2018-04-26T09:38:56.324Z,15.54
2018-04-26T09:39:56.335Z,15.94
2018-04-26T09:40:56.363Z,16.65
2018-04-26T09:41:56.290Z,16.61
2018-04-26T09:42:56.281Z,17.24
2018-04-26T09:43:56.270Z,17.20
2018-04-26T09:44:56.259Z,17.56
2018-04-26T09:45:56.271Z,17.68
2018-04-26T09:46:56.239Z,17.78
2018-04-26T09:47:56.233Z,17.37
2018-04-26T09:48:56.234Z,17.24
2018-04-26T09:49:56.218Z,17.84
2018-04-26T09:50:56.226Z,18.05
2018-04-26T09:51:56.213Z,17.97
2018-04-26T09:52:56.201Z,17.95
2018-04-26T09:53:56.192Z,18.09
2018-04-26T09:54:56.195Z,18.33
2018-04-26T09:55:56.186Z,18.76
2018-04-26T09:56:56.176Z,18.91
2018-04-26T09:57:56.171Z,18.83
2018-04-26T09:58:56.215Z,18.91
2018-04-26T09:59:56.163Z,19.17
2018-04-26T10:00:56.160Z,19.34
2018-04-26T10:01:56.163Z,19.34
2018-04-26T10:02:56.150Z,19.60
2018-04-26T10:03:56.147Z,19.29
2018-04-26T10:04:56.145Z,19.59
2018-04-26T10:05:56.155Z,19.71
2018-04-26T10:06:56.163Z,19.55
2018-04-26T10:07:56.156Z,19.20
2018-04-26T10:08:56.134Z,18.63
2018-04-26T10:09:56.135Z,18.13
2018-04-26T10:10:56.130Z,18.58
2018-04-26T10:11:56.126Z,18.37
2018-04-26T10:12:56.123Z,17.84
2018-04-26T10:13:56.121Z,17.42
2018-04-26T10:14:56.116Z,18.13
2018-04-26T10:15:56.117Z,17.28
2018-04-26T10:16:56.131Z,16.62
2018-04-26T10:17:56.107Z,16.36
2018-04-26T10:18:56.101Z,16.29
2018-04-26T10:19:56.098Z,16.29
2018-04-26T10:20:56.091Z,15.90
2018-04-26T10:21:56.089Z,15.75
2018-04-26T10:22:56.087Z,15.66
2018-04-26T10:23:56.076Z,15.62
2018-04-26T10:24:56.065Z,16.22
2018-04-26T10:25:56.063Z,17.34
2018-04-26T10:26:56.051Z,17.63
2018-04-26T10:27:56.051Z,17.78
2018-04-26T10:28:56.036Z,17.69
2018-04-26T10:29:56.044Z,17.53
2018-04-26T10:30:56.023Z,17.93
2018-04-26T10:31:56.017Z,18.02
2018-04-26T10:32:56.009Z,17.88
2018-04-26T10:33:56.004Z,17.75
2018-04-26T10:34:55.998Z,18.21
2018-04-26T10:35:56.007Z,18.48
2018-04-26T10:36:55.995Z,18.41
2018-04-26T10:37:55.982Z,18.76
2018-04-26T10:38:55.984Z,19.15
2018-04-26T10:39:55.973Z,18.36
2018-04-26T10:40:55.971Z,17.75
2018-04-26T10:41:55.968Z,17.44
2018-04-26T10:42:55.979Z,17.37
2018-04-26T10:43:55.957Z,18.09
2018-04-26T10:44:55.952Z,17.93
2018-04-26T10:45:55.948Z,17.50
2018-04-26T10:46:55.953Z,17.56
2018-04-26T10:47:55.938Z,17.90
2018-04-26T10:48:55.933Z,18.63
2018-04-26T10:49:55.928Z,19.29
2018-04-26T10:50:55.924Z,19.53
2018-04-26T10:51:55.923Z,19.53
2018-04-26T10:52:55.977Z,19.59
2018-04-26T10:53:55.914Z,19.29
2018-04-26T10:54:55.908Z,18.98
2018-04-26T10:55:55.903Z,18.36
2018-04-26T10:56:55.902Z,17.78
2018-04-26T10:57:55.901Z,17.16
2018-04-26T10:58:55.891Z,17.07
2018-04-26T10:59:55.886Z,16.92
2018-04-26T11:00:55.881Z,17.35
2018-04-26T11:01:55.876Z,17.84
2018-04-26T11:02:55.881Z,17.79
2018-04-26T11:03:55.868Z,17.41
2018-04-26T11:04:55.859Z,17.75
2018-04-26T11:05:55.861Z,18.02
2018-04-26T11:06:55.863Z,18.02
2018-04-26T11:07:55.842Z,17.76
2018-04-26T11:08:55.836Z,17.60
2018-04-26T11:09:55.832Z,17.39
2018-04-26T11:10:55.834Z,17.59
2018-04-26T11:11:55.819Z,17.16
2018-04-26T11:12:55.833Z,17.17
2018-04-26T11:13:55.808Z,16.87
2018-04-26T11:14:55.807Z,16.62
2018-04-26T11:15:55.793Z,15.90
2018-04-26T11:16:55.795Z,15.39
2018-04-26T11:17:55.779Z,14.96
2018-04-26T11:18:55.772Z,14.81
2018-04-26T11:19:55.768Z,14.86
2018-04-26T11:20:55.753Z,14.78
2018-04-26T11:21:55.751Z,14.70
2018-04-26T11:22:55.742Z,15.07
2018-04-26T11:23:55.733Z,15.81
2018-04-26T11:24:55.731Z,16.74
2018-04-26T11:25:55.705Z,16.97
2018-04-26T11:26:55.701Z,17.02
2018-04-26T11:27:55.692Z,17.56
2018-04-26T11:28:55.687Z,18.05
2018-04-26T11:29:55.679Z,17.72
2018-04-26T11:30:55.748Z,17.95
2018-04-26T11:31:55.666Z,17.90
2018-04-26T11:32:55.657Z,18.13
2018-04-26T11:33:55.651Z,18.39
2018-04-26T11:34:55.635Z,18.30
2018-04-26T11:35:55.632Z,18.27
2018-04-26T11:36:55.623Z,18.49
2018-04-26T11:37:55.619Z,18.57
2018-04-26T11:38:55.622Z,18.58
2018-04-26T11:39:55.625Z,17.75
2018-04-26T11:40:55.610Z,17.23
2018-04-26T11:41:55.598Z,16.83
2018-04-26T11:42:55.596Z,16.77
2018-04-26T11:43:55.587Z,16.44
2018-04-26T11:44:55.578Z,16.21
2018-04-26T11:45:55.573Z,15.96
2018-04-26T11:46:55.562Z,15.87
2018-04-26T11:47:55.565Z,15.84
2018-04-26T11:48:55.546Z,16.06
2018-04-26T11:49:55.546Z,16.40
2018-04-26T11:50:55.530Z,16.10
2018-04-26T11:51:55.522Z,16.03
2018-04-26T11:52:55.514Z,15.75
2018-04-26T11:53:55.512Z,15.59
2018-04-26T11:54:55.503Z,15.60
2018-04-26T11:55:55.494Z,15.60
2018-04-26T11:56:55.477Z,15.44
2018-04-26T11:57:55.468Z,15.26
2018-04-26T11:58:55.457Z,15.10
2018-04-26T11:59:55.456Z,15.07
2018-04-26T12:00:55.439Z,15.10
2018-04-26T12:01:55.434Z,14.92
2018-04-26T12:02:55.423Z,14.58
2018-04-26T12:03:55.408Z,14.20
2018-04-26T12:04:55.396Z,13.89
2018-04-26T12:05:55.386Z,13.58
2018-04-26T12:06:55.375Z,13.39
2018-04-26T12:07:55.376Z,13.16
2018-04-26T12:08:55.352Z,12.87
2018-04-26T12:09:55.348Z,12.99
2018-04-26T12:10:55.330Z,12.91
2018-04-26T12:11:55.320Z,12.87
2018-04-26T12:12:55.311Z,12.86
2018-04-26T12:13:55.297Z,12.87
2018-04-26T12:14:55.283Z,12.87
2018-04-26T12:15:55.266Z,12.76
2018-04-26T12:16:55.264Z,12.70
2018-04-26T12:17:55.249Z,12.61
2018-04-26T12:18:55.230Z,12.58
2018-04-26T12:19:55.219Z,12.73
2018-04-26T12:20:55.216Z,12.83
2018-04-26T12:21:55.193Z,12.87
2018-04-26T12:22:55.183Z,12.87
2018-04-26T12:23:55.232Z,12.83
2018-04-26T12:24:55.151Z,12.73
2018-04-26T12:25:55.142Z,12.73
2018-04-26T12:26:55.130Z,12.70
2018-04-26T12:27:55.113Z,12.68
2018-04-26T12:28:55.096Z,12.66
2018-04-26T12:29:55.083Z,12.83
2018-04-26T12:30:55.069Z,13.19
2018-04-26T12:31:55.058Z,13.42
2018-04-26T12:32:55.043Z,13.54
2018-04-26T12:33:55.030Z,13.91
2018-04-26T12:34:55.015Z,14.05
2018-04-26T12:35:55.010Z,14.37
2018-04-26T12:36:54.988Z,14.51
2018-04-26T12:37:54.979Z,14.67
2018-04-26T12:38:54.960Z,14.74
2018-04-26T12:39:54.951Z,14.89
2018-04-26T12:40:54.936Z,15.04
2018-04-26T12:41:54.923Z,15.14
2018-04-26T12:42:54.910Z,15.02
2018-04-26T12:43:54.901Z,15.10
2018-04-26T12:44:54.897Z,15.26
2018-04-26T12:45:54.868Z,15.30
2018-04-26T12:46:54.868Z,15.33
2018-04-26T12:47:54.853Z,15.23
2018-04-26T12:48:54.828Z,15.43
2018-04-26T12:49:54.814Z,15.41
2018-04-26T12:50:54.802Z,15.50
2018-04-26T12:51:54.787Z,15.51
2018-04-26T12:52:54.778Z,15.41
2018-04-26T12:53:54.767Z,15.55